Flight Track Log - Related Links

Times and Time Zones

All times are in EDT time to prevent confusion due to time zone crossing. See the DAL3676 flight status page for this flight to view local times or setup timezone preferences in your user account.

Time Position Orientation Groundspeed Altitude Reporting Facility
EDT Latitude Longitude Course Direction KTS MPH feet Rate Location/Type
Tue 07:19:00 PM 34.9333 -87.0956 270° West  Level FlightAware Approximate
Tue 07:19:17 PM 34.6117 -86.9378 318° Northwest 284 327 9,800  Level Memphis Center
Tue 07:20:00 PM 35.0055 -87.1824 317° Northwest  Level FlightAware Approximate
Tue 07:20:17 PM 34.6761 -87.0061 319° Northwest 294 338 11,800  Level Memphis Center
Tue 07:21:00 PM 35.0821 -87.2653 321° Northwest  Level FlightAware Approximate
Tue 07:21:17 PM 34.7469 -87.0814 319° Northwest 313 360 13,800  Level Memphis Center
Tue 07:22:00 PM 35.1613 -87.3446 321° Northwest  Level FlightAware Approximate
Tue 07:22:17 PM 34.8200 -87.1544 321° Northwest 331 381 15,700  Level Memphis Center
Tue 07:23:00 PM 35.2374 -87.4284 317° Northwest  Level FlightAware Approximate
Tue 07:23:17 PM 34.8994 -87.2453 317° Northwest 342 394 17,900  Level Memphis Center
Tue 07:24:00 PM 35.3124 -87.5137 318° Northwest  Level FlightAware Approximate
Tue 07:24:17 PM 34.9578 -87.3292 310° West 342 394 19,400  Level Memphis Center
Tue 07:25:17 PM 35.0328 -87.4078 319° Northwest 347 399 20,800 1,150 Climbing Memphis Center
Tue 07:26:17 PM 35.1097 -87.4889 319° Northwest 358 412 21,700 700 Climbing Memphis Center
Tue 07:27:17 PM 35.1886 -87.5647 322° Northwest 377 434 22,200 800 Climbing Memphis Center
Tue 07:28:17 PM 35.2719 -87.6511 320° Northwest 388 447 23,300 1,150 Climbing Memphis Center
Tue 07:29:17 PM 35.3572 -87.7375 320° Northwest 394 453 24,500 1,200 Climbing Memphis Center
Tue 07:30:17 PM 35.4383 -87.8239 319° Northwest 388 447 25,700 1,100 Climbing Memphis Center
Tue 07:31:17 PM 35.5214 -87.9108 320° Northwest 388 447 26,700 900 Climbing Memphis Center
Tue 07:32:17 PM 35.6022 -87.9978 319° Northwest 394 453 27,500 750 Climbing Memphis Center
Tue 07:33:17 PM 35.6894 -88.0872 320° Northwest 394 453 28,200 750 Climbing Memphis Center
Tue 07:34:17 PM 35.7808 -88.1769 321° Northwest 394 453 29,000 400 Climbing Memphis Center
Tue 07:35:17 PM 35.8700 -88.2692 320° Northwest 394 453 29,000  Level Memphis Center
Tue 07:36:17 PM 35.9592 -88.3644 319° Northwest 405 466 29,000 250 Level Memphis Center
Tue 07:37:17 PM 36.0503 -88.4597 320° Northwest 415 478 29,500 500 Climbing Memphis Center
Tue 07:38:17 PM 36.1414 -88.5553 320° Northwest 426 490 30,000 250 Climbing Memphis Center
Tue 07:39:17 PM 36.2322 -88.6536 319° Northwest 426 490 30,000  Level Memphis Center
Tue 07:40:17 PM 36.3253 -88.7547 319° Northwest 431 496 30,000  Level Memphis Center
Tue 07:41:17 PM 36.4183 -88.8533 320° Northwest 436 502 30,000  Level Memphis Center
Tue 07:42:17 PM 36.5133 -88.9550 319° Northwest 436 502 30,000  Level Memphis Center
Tue 07:43:17 PM 36.6103 -89.0567 320° Northwest 441 507 30,000  Level Memphis Center
Tue 07:44:17 PM 36.7053 -89.1639 318° Northwest 441 507 30,000  Level Memphis Center
Tue 07:45:17 PM 36.8000 -89.2661 319° Northwest 446 513 30,000  Level Memphis Center
Tue 07:46:17 PM 36.8903 -89.3686 318° Northwest 446 513 30,000  Level Memphis Center
Tue 07:47:17 PM 36.9869 -89.4739 319° Northwest 446 513 30,000  Level Memphis Center
Tue 07:48:51 PM 37.1133 -89.6111 319° Northwest 452 520 30,000  Level Kansas City Center
Tue 07:49:52 PM 37.2264 -89.7353 319° Northwest 452 520 30,000  Level Kansas City Center
Tue 07:50:54 PM 37.3200 -89.8389 319° Northwest 451 519 30,000  Level Kansas City Center
Tue 07:51:55 PM 37.4142 -89.9414 319° Northwest 450 518 30,000  Level Kansas City Center
Tue 07:52:56 PM 37.5072 -90.0458 318° Northwest 448 516 30,000  Level Kansas City Center
Tue 07:53:59 PM 37.6008 -90.1517 318° Northwest 450 518 30,000  Level Kansas City Center
Tue 07:55:00 PM 37.7069 -90.2392 327° Northwest 460 529 30,000  Level Kansas City Center
Tue 07:56:03 PM 37.8372 -90.2667 351° North 470 541 30,000  Level Kansas City Center
Tue 07:57:03 PM 37.9939 -90.3000 350° North 480 552 30,000  Level Kansas City Center
Tue 07:58:04 PM 38.1253 -90.3264 351° North 477 549 30,000  Level Kansas City Center
Tue 07:59:07 PM 38.2567 -90.3544 350° North 477 549 30,000  Level Kansas City Center
Tue 08:00:08 PM 38.3903 -90.3822 351° North 479 551 30,000  Level Kansas City Center
Tue 08:01:11 PM 38.5150 -90.4075 351° North 478 550 30,000  Level Kansas City Center
Tue 08:02:12 PM 38.6458 -90.4364 350° North 477 549 30,000 246 Level Kansas City Center
Tue 08:03:13 PM 38.8031 -90.3658 19° North 510 587 30,500 492 Climbing Kansas City Center
Tue 08:04:14 PM 38.9242 -90.2794 29° Northeast 501 577 31,000 240 Climbing Kansas City Center
Tue 08:05:18 PM 39.0392 -90.1953 30° Northeast 498 573 31,000  Level Kansas City Center
Tue 08:06:20 PM 39.1617 -90.1072 29° Northeast 502 578 31,000  Level Kansas City Center
Tue 08:07:20 PM 39.2844 -90.0183 29° Northeast 505 581 31,000  Level Kansas City Center
Tue 08:08:24 PM 39.4069 -89.9289 29° Northeast 507 583 31,000  Level Kansas City Center
Tue 08:09:25 PM 39.5544 -89.8200 30° Northeast 508 585 31,000  Level Kansas City Center
Tue 08:10:26 PM 39.6778 -89.7311 29° Northeast 508 585 31,000  Level Kansas City Center
Tue 08:11:26 PM 39.7928 -89.6467 29° Northeast 508 585 31,000  Level Kansas City Center
Tue 08:12:45 PM 39.9625 -89.5231 29° Northeast 506 582 31,000  Level Chicago Center
Tue 08:13:47 PM 40.0836 -89.4336 29° Northeast 502 578 31,000  Level Chicago Center
Tue 08:15:51 PM 40.3108 -89.2256 35° Northeast 518 596 31,000  Level Chicago Center
Tue 08:16:53 PM 40.3906 -89.0714 56° Northeast 518 596 31,000  Level Chicago Center
Tue 08:17:55 PM 40.4878 -88.8844 56° Northeast 521 600 31,000  Level Chicago Center
Tue 08:18:57 PM 40.5608 -88.7442 56° Northeast 516 594 31,000  Level Chicago Center
Tue 08:19:59 PM 40.6569 -88.5569 56° Northeast 517 595 31,000  Level Chicago Center
Tue 08:21:01 PM 40.7383 -88.4006 55° Northeast 521 600 31,000  Level Chicago Center
Tue 08:22:03 PM 40.8178 -88.2431 56° Northeast 521 600 31,000  Level Chicago Center
Tue 08:23:05 PM 40.8992 -88.0864 55° Northeast 523 602 31,000  Level Chicago Center
Tue 08:24:07 PM 40.9786 -87.9286 56° Northeast 525 604 31,000  Level Chicago Center
Tue 08:25:09 PM 41.0744 -87.7400 56° Northeast 523 602 31,000  Level Chicago Center
Tue 08:26:11 PM 41.1536 -87.5808 57° Northeast 528 608 31,000  Level Chicago Center
Tue 08:27:13 PM 41.2336 -87.4203 56° Northeast 529 609 31,000  Level Chicago Center
Tue 08:28:15 PM 41.3125 -87.2614 56° Northeast 523 602 31,000  Level Chicago Center
Tue 08:29:17 PM 41.4081 -87.0678 57° Northeast 527 606 31,000  Level Chicago Center
Tue 08:30:19 PM 41.4872 -86.9036 57° Northeast 528 608 31,000 -97 Level Chicago Center
Tue 08:31:21 PM 41.5667 -86.7400 57° Northeast 530 610 30,800 -878 Descending Chicago Center
Tue 08:32:22 PM 41.6492 -86.5675 57° Northeast 533 613 29,200 -1,512 Descending Chicago Center
Tue 08:33:24 PM 41.6964 -86.3825 71° East 521 600 27,700 -1,452 Descending Chicago Center
Tue 08:34:26 PM 41.7411 -86.1950 72° East 524 603 26,200 -1,452 Descending Chicago Center
Tue 08:35:28 PM 41.7858 -86.0064 72° East 529 609 24,700 -1,306 Descending Chicago Center
Tue 08:36:30 PM 41.8303 -85.8175 72° East 529 609 23,500 -1,161 Descending Chicago Center
Tue 08:37:32 PM 41.8725 -85.6344 73° East 515 593 22,300 -1,306 Descending Chicago Center
Tue 08:38:34 PM 41.9197 -85.4206 73° East 495 570 20,800 -1,340 Descending Chicago Center
Tue 08:39:15 PM 41.9483 -85.3050 72° East 499 574 20,000 -1,069 Descending Cleveland Center
Tue 08:40:15 PM 41.9844 -85.1342 74° East 479 551 19,000 -500 Descending Cleveland Center
Tue 08:41:15 PM 42.0203 -84.9633 74° East 473 544 19,000  Level Cleveland Center
Tue 08:42:15 PM 42.0475 -84.7892 78° East 473 544 19,000 -1,100 Level Cleveland Center
Tue 08:43:15 PM 42.0033 -84.6269 110° East 449 517 16,800 -2,350 Descending Cleveland Center
Tue 08:44:15 PM 41.9522 -84.4728 114° Southeast 443 510 14,300 -2,617 Descending Cleveland Center
Tue 08:44:49 PM 41.9219 -84.3844 115° Southeast 441 507 12,700 -2,500 Descending Cleveland Center
Tue 08:45:15 PM 41.9072 -84.3222 108° East 438 504 11,800 -2,286 Descending Cleveland Center
Tue 08:45:31 PM 41.8919 -84.2850 119° Southeast 405 466 11,100 -800 Descending Cleveland Center
Tue 08:46:15 PM 41.8656 -84.1969 112° Southeast 426 490 11,000 -98 Descending Cleveland Center
Tue 08:46:32 PM 41.8525 -84.1433 108° East 413 475 11,000  Level Cleveland Center
Tue 08:47:15 PM 41.8367 -84.0531 103° East 415 478 11,000  Level Cleveland Center
Tue 08:47:33 PM 41.8572 -83.9931 65° Northeast 404 465 11,000  Level Cleveland Center
Tue 08:48:15 PM 41.8883 -83.9219 60° Northeast 373 429 11,000  Level Cleveland Center
Tue 08:48:40 PM 41.9319 -83.8600 47° Northeast 399 459 11,000  Level Cleveland Center
Tue 08:49:15 PM 41.9586 -83.8028 58° Northeast 367 422 11,000  Level Cleveland Center
Tue 08:49:47 PM 42.0125 -83.7356 43° Northeast 396 456 11,000  Level Cleveland Center
Tue 08:50:15 PM 42.0364 -83.7006 47° Northeast 385 443 11,000  Level Cleveland Center
Tue 08:50:41 PM 42.0717 -83.6322 55° Northeast 403 464 11,000  Level Cleveland Center
Tue 08:51:15 PM 42.0858 -83.5686 73° East 385 443 11,000  Level Cleveland Center
Tue 08:51:42 PM 42.1047 -83.4800 74° East 407 468 11,000  Level Cleveland Center
Tue 08:52:15 PM 42.1144 -83.4217 77° East 385 443 11,000  Level Cleveland Center
Tue 08:52:43 PM 42.1453 -83.3558 58° Northeast 324 373 11,000  Level Cleveland Center
Tue 08:53:15 PM 42.1714 -83.3175 47° Northeast 362 417 11,000  Level Cleveland Center
Tue 08:53:44 PM 42.2058 -83.2714 45° Northeast 319 367 11,000 -600 Level Cleveland Center
Tue 08:54:15 PM 42.2294 -83.2331 50° Northeast 326 375 10,400 -1,770 Descending Cleveland Center
Tue 08:54:45 PM 42.2722 -83.1872 38° Northeast 301 346 9,200 -2,242 Descending Cleveland Center
Tue 08:55:46 PM 42.3464 -83.1369 27° Northeast 298 343 7,000 -1,671 Descending Cleveland Center
Tue 08:57:05 PM 42.3978 -83.1728 333° Northwest 221 254 5,300 -1,359 Descending Cleveland Center
Tue 08:57:54 PM 42.3714 -83.2250 236° Southwest 208 239 4,100 -1,469 Descending Cleveland Center

Login

Don't have an account? Register now (free) for customized features, flight alerts, and more!